createdAt,value
2018-01-05T00:01:13.701Z,98229.38
2018-01-05T00:03:42.045Z,98227.81
2018-01-05T00:06:10.364Z,98234.82
2018-01-05T00:08:38.779Z,98236.81
2018-01-05T00:11:07.873Z,98235.61
2018-01-05T00:13:36.185Z,98228.05
2018-01-05T00:16:04.576Z,98229.26
2018-01-05T00:18:32.897Z,98235.65
2018-01-05T00:21:01.215Z,98242.80
2018-01-05T00:23:29.565Z,98248.05
2018-01-05T00:25:57.908Z,98258.59
2018-01-05T00:28:26.231Z,98263.41
2018-01-05T00:30:55.323Z,98273.64
2018-01-05T00:33:24.431Z,98275.28
2018-01-05T00:35:52.744Z,98278.44
2018-01-05T00:38:21.091Z,98284.97
2018-01-05T00:40:49.404Z,98293.08
2018-01-05T00:43:17.765Z,98291.83
2018-01-05T00:45:46.092Z,98300.95
2018-01-05T00:48:14.416Z,98311.95
2018-01-05T00:50:42.755Z,98326.10
2018-01-05T00:53:11.856Z,98328.53
2018-01-05T00:55:40.941Z,98330.42
2018-01-05T00:58:09.320Z,98318.33
2018-01-05T01:00:37.643Z,98334.31
2018-01-05T01:03:06.000Z,98337.91
2018-01-05T01:05:34.371Z,98339.59
2018-01-05T01:08:03.447Z,98351.20
2018-01-05T01:10:31.764Z,98351.11
2018-01-05T01:13:00.111Z,98371.97
2018-01-05T01:15:29.219Z,98362.09
2018-01-05T01:17:58.306Z,98378.84
2018-01-05T01:20:27.407Z,98379.30
2018-01-05T01:22:56.484Z,98390.87
2018-01-05T01:25:24.866Z,98408.78
2018-01-05T01:27:53.195Z,98407.87
2018-01-05T01:30:21.520Z,98392.63
2018-01-05T01:32:49.867Z,98412.66
2018-01-05T01:35:18.184Z,98424.24
2018-01-05T01:37:47.308Z,98424.01
2018-01-05T01:40:15.631Z,98442.25
2018-01-05T01:42:43.959Z,98438.08
2018-01-05T01:45:12.308Z,98436.32
2018-01-05T01:47:41.417Z,98441.30
2018-01-05T01:50:10.506Z,98443.19
2018-01-05T01:52:39.615Z,98457.12
2018-01-05T01:55:08.728Z,98456.61
2018-01-05T01:57:37.064Z,98466.63
2018-01-05T02:00:05.384Z,98470.03
2018-01-05T02:02:33.742Z,98471.49
2018-01-05T02:05:02.815Z,98479.86
2018-01-05T02:07:31.120Z,98491.23
2018-01-05T02:09:59.475Z,98485.56
2018-01-05T02:12:27.783Z,98497.98
2018-01-05T02:14:56.102Z,98504.09
2018-01-05T02:17:24.462Z,98514.91
2018-01-05T02:19:52.775Z,98511.27
2018-01-05T02:22:21.100Z,98512.08
2018-01-05T02:24:49.448Z,98504.11
2018-01-05T02:27:18.552Z,98504.65
2018-01-05T02:29:47.684Z,98508.98
2018-01-05T02:32:16.023Z,98514.24
2018-01-05T02:34:45.153Z,98523.03
2018-01-05T02:37:13.487Z,98513.03
2018-01-05T02:39:42.622Z,98518.28
2018-01-05T02:42:10.980Z,98514.51
2018-01-05T02:44:39.356Z,98504.37
2018-01-05T02:47:08.448Z,98508.28
2018-01-05T02:49:37.539Z,98516.01
2018-01-05T02:52:06.683Z,98523.02
2018-01-05T02:54:34.995Z,98516.55
2018-01-05T02:57:03.319Z,98517.09
2018-01-05T02:59:31.684Z,98525.59
2018-01-05T03:02:00.030Z,98521.13
2018-01-05T03:04:28.343Z,98532.35
2018-01-05T03:06:56.688Z,98535.06
2018-01-05T03:09:25.006Z,98543.03
2018-01-05T03:11:53.324Z,98547.91
2018-01-05T03:14:22.613Z,98550.06
2018-01-05T03:16:50.919Z,98549.91
2018-01-05T03:19:19.243Z,98554.92
2018-01-05T03:21:47.594Z,98569.64
2018-01-05T03:24:16.699Z,98558.97
2018-01-05T03:26:45.013Z,98557.20
2018-01-05T03:29:13.348Z,98557.46
2018-01-05T03:31:42.452Z,98559.63
2018-01-05T03:34:10.788Z,98556.24
2018-01-05T03:36:39.129Z,98546.50
2018-01-05T03:39:07.461Z,98541.73
2018-01-05T03:41:35.789Z,98537.94
2018-01-05T03:44:04.179Z,98528.36
2018-01-05T03:46:32.519Z,98530.41
2018-01-05T03:49:00.832Z,98525.23
2018-01-05T03:51:29.151Z,98519.19
2018-01-05T03:53:58.259Z,98515.23
2018-01-05T03:56:27.371Z,98514.02
2018-01-05T03:58:56.583Z,98513.55
2018-01-05T04:01:24.899Z,98513.27
2018-01-05T04:03:53.247Z,98515.28
2018-01-05T04:06:21.556Z,98503.88
2018-01-05T04:08:49.868Z,98505.21
2018-01-05T04:11:18.976Z,98500.87
2018-01-05T04:13:47.293Z,98509.13
2018-01-05T04:16:15.608Z,98516.25
2018-01-05T04:18:44.718Z,98516.53
2018-01-05T04:21:13.803Z,98527.28
2018-01-05T04:23:42.891Z,98536.71
2018-01-05T04:26:11.987Z,98531.09
2018-01-05T04:28:41.067Z,98539.87
2018-01-05T04:31:09.419Z,98539.20
2018-01-05T04:33:37.743Z,98537.43
2018-01-05T04:36:06.879Z,98534.93
2018-01-05T04:38:35.227Z,98536.22
2018-01-05T04:41:04.324Z,98553.59
2018-01-05T04:43:33.420Z,98560.08
2018-01-05T04:46:01.763Z,98559.05
2018-01-05T04:48:30.103Z,98555.94
2018-01-05T04:50:58.424Z,98549.97
2018-01-05T04:53:26.780Z,98561.67
2018-01-05T04:55:55.100Z,98567.20
2018-01-05T04:58:24.197Z,98561.35
2018-01-05T05:00:53.329Z,98565.55
2018-01-05T05:03:21.656Z,98567.81
2018-01-05T05:05:49.979Z,98587.00
2018-01-05T05:08:18.303Z,98574.14
2018-01-05T05:10:46.633Z,98584.83
2018-01-05T05:13:14.987Z,98574.00
2018-01-05T05:15:44.064Z,98582.84
2018-01-05T05:18:13.163Z,98580.62
2018-01-05T05:20:41.552Z,98591.39
2018-01-05T05:23:10.636Z,98593.97
2018-01-05T05:25:39.721Z,98595.50
2018-01-05T05:28:08.058Z,98591.37
2018-01-05T05:30:36.380Z,98588.59
2018-01-05T05:33:05.483Z,98582.73
2018-01-05T05:35:33.808Z,98572.43
2018-01-05T05:38:02.126Z,98579.23
2018-01-05T05:40:30.480Z,98577.70
2018-01-05T05:42:58.799Z,98581.59
2018-01-05T05:45:27.893Z,98581.48
2018-01-05T05:47:57.029Z,98577.63
2018-01-05T05:50:25.360Z,98572.12
2018-01-05T05:52:53.682Z,98562.97
2018-01-05T05:55:22.087Z,98575.85
2018-01-05T05:57:50.406Z,98572.52
2018-01-05T06:00:19.507Z,98571.05
2018-01-05T06:02:48.610Z,98584.06
2018-01-05T06:05:16.928Z,98584.60
2018-01-05T06:07:45.256Z,98589.01
2018-01-05T06:10:14.381Z,98591.60
2018-01-05T06:12:42.726Z,98591.06
2018-01-05T06:15:11.819Z,98587.12
2018-01-05T06:17:40.941Z,98586.55
2018-01-05T06:20:09.484Z,98592.81
2018-01-05T06:22:38.581Z,98597.96
2018-01-05T06:25:06.979Z,98606.31
2018-01-05T06:27:35.271Z,98608.09
2018-01-05T06:30:03.608Z,98599.94
2018-01-05T06:32:31.955Z,98601.12
2018-01-05T06:35:00.271Z,98593.78
2018-01-05T06:37:28.618Z,98591.66
2018-01-05T06:39:56.951Z,98601.33
2018-01-05T06:42:25.267Z,98589.11
2018-01-05T06:44:54.855Z,98597.03
2018-01-05T06:47:23.185Z,98597.42
2018-01-05T06:49:53.243Z,98605.42
2018-01-05T06:52:21.604Z,98607.06
2018-01-05T06:54:50.004Z,98596.68
2018-01-05T06:57:19.187Z,98600.97
2018-01-05T06:59:47.535Z,98615.05
2018-01-05T07:02:15.851Z,98612.78
2018-01-05T07:04:44.163Z,98617.00
2018-01-05T07:07:12.508Z,98617.96
2018-01-05T07:09:40.824Z,98624.27
2018-01-05T07:12:09.175Z,98614.70
2018-01-05T07:14:37.492Z,98600.80
2018-01-05T07:17:05.828Z,98611.06
2018-01-05T07:19:34.172Z,98610.07
2018-01-05T07:22:03.260Z,98608.66
2018-01-05T07:24:32.366Z,98605.88
2018-01-05T07:27:00.734Z,98609.42
2018-01-05T07:29:29.811Z,98599.70
2018-01-05T07:31:58.132Z,98600.11
2018-01-05T07:34:26.493Z,98596.91
2018-01-05T07:36:55.568Z,98600.11
2018-01-05T07:39:23.923Z,98602.81
2018-01-05T07:41:52.267Z,98597.15
2018-01-05T07:44:20.607Z,98602.12
2018-01-05T07:46:49.819Z,98596.45
2018-01-05T07:49:18.914Z,98593.75
2018-01-05T07:51:48.029Z,98604.20
2018-01-05T07:54:16.358Z,98615.11
2018-01-05T07:56:44.704Z,98611.13
2018-01-05T07:59:13.068Z,98611.97
2018-01-05T08:01:41.391Z,98609.46
2018-01-05T08:04:09.707Z,98617.44
2018-01-05T08:06:38.820Z,98615.03
2018-01-05T08:09:07.151Z,98617.39
2018-01-05T08:11:35.467Z,98616.59
2018-01-05T08:14:03.803Z,98616.72
2018-01-05T08:16:32.111Z,98619.27
2018-01-05T08:19:01.200Z,98612.60
2018-01-05T08:21:30.305Z,98612.60
2018-01-05T08:23:59.388Z,98613.27
2018-01-05T08:26:28.491Z,98609.06
2018-01-05T08:28:57.591Z,98607.04
2018-01-05T08:31:26.712Z,98613.67
2018-01-05T08:33:55.059Z,98613.23
2018-01-05T08:36:24.983Z,98615.33
2018-01-05T08:38:54.100Z,98614.55
2018-01-05T08:41:22.425Z,98605.49
2018-01-05T08:43:50.767Z,98604.84
2018-01-05T08:46:19.141Z,98607.42
2018-01-05T08:48:47.470Z,98608.50
2018-01-05T08:51:15.786Z,98610.66
2018-01-05T08:53:44.111Z,98603.09
2018-01-05T08:56:12.429Z,98599.53
2018-01-05T08:58:40.789Z,98593.72
2018-01-05T09:01:09.874Z,98597.20
2018-01-05T09:03:38.975Z,98602.72
2018-01-05T09:06:07.299Z,98605.46
2018-01-05T09:08:35.608Z,98598.52
2018-01-05T09:11:03.919Z,98606.73
2018-01-05T09:13:33.023Z,98609.44
2018-01-05T09:16:01.340Z,98615.77
2018-01-05T09:18:29.647Z,98608.34
2018-01-05T09:20:57.976Z,98617.53
2018-01-05T09:23:26.301Z,98622.89
2018-01-05T09:25:55.136Z,98619.23
2018-01-05T09:28:23.475Z,98626.20
2018-01-05T09:30:51.816Z,98624.19
2018-01-05T09:33:20.128Z,98634.72
2018-01-05T09:35:48.454Z,98631.32
2018-01-05T09:38:17.576Z,98643.04
2018-01-05T09:40:45.884Z,98636.47
2018-01-05T09:43:14.223Z,98641.63
2018-01-05T09:45:42.540Z,98643.09
2018-01-05T09:48:10.855Z,98639.94
2018-01-05T09:50:39.211Z,98635.42
2018-01-05T09:53:08.292Z,98638.84
2018-01-05T09:55:36.654Z,98640.33
2018-01-05T09:58:05.779Z,98626.31
2018-01-05T10:00:34.895Z,98641.70
2018-01-05T10:03:03.260Z,98645.86
2018-01-05T10:05:32.340Z,98625.14
2018-01-05T10:08:01.429Z,98644.48
2018-01-05T10:10:29.749Z,98642.88
2018-01-05T10:12:58.116Z,98635.48
2018-01-05T10:15:26.444Z,98639.17
2018-01-05T10:17:54.772Z,98637.95
2018-01-05T10:20:23.118Z,98647.51
2018-01-05T10:22:51.440Z,98648.83
2018-01-05T10:25:19.759Z,98646.45
2018-01-05T10:27:48.109Z,98645.80
2018-01-05T10:30:16.444Z,98645.95
2018-01-05T10:32:45.536Z,98655.33
2018-01-05T10:35:14.652Z,98650.34
2018-01-05T10:37:43.007Z,98663.08
2018-01-05T10:40:12.104Z,98664.88
2018-01-05T10:42:41.219Z,98679.80
2018-01-05T10:45:09.570Z,98665.60
2018-01-05T10:47:37.895Z,98663.38
2018-01-05T10:50:06.240Z,98648.20
2018-01-05T10:52:35.324Z,98653.11
2018-01-05T10:55:04.436Z,98652.08
2018-01-05T10:57:33.532Z,98677.90
2018-01-05T11:00:02.616Z,98671.34
2018-01-05T11:02:31.807Z,98673.91
2018-01-05T11:05:00.916Z,98668.80
2018-01-05T11:07:30.012Z,98675.01
2018-01-05T11:09:59.125Z,98670.45
2018-01-05T11:12:27.452Z,98671.81
2018-01-05T11:14:55.785Z,98682.70
2018-01-05T11:17:24.128Z,98695.13
2018-01-05T11:19:52.439Z,98695.92
2018-01-05T11:22:20.775Z,98693.72
2018-01-05T11:24:49.111Z,98703.41
2018-01-05T11:27:17.441Z,98692.77
2018-01-05T11:29:46.528Z,98689.95
2018-01-05T11:32:14.883Z,98700.53
2018-01-05T11:34:43.204Z,98699.23
2018-01-05T11:37:12.298Z,98699.45
2018-01-05T11:39:41.420Z,98731.64
2018-01-05T11:42:09.752Z,98721.65
2018-01-05T11:44:38.063Z,98730.95
2018-01-05T11:47:06.403Z,98746.67
2018-01-05T11:49:34.736Z,98752.88
2018-01-05T11:52:03.058Z,98756.46
2018-01-05T11:54:31.400Z,98760.13
2018-01-05T11:56:59.715Z,98777.41
2018-01-05T11:59:28.069Z,98787.23
2018-01-05T12:01:56.421Z,98782.70
2018-01-05T12:04:24.757Z,98791.40
2018-01-05T12:06:53.107Z,98790.45
2018-01-05T12:09:21.460Z,98798.73
2018-01-05T12:11:49.778Z,98803.61
2018-01-05T12:14:18.103Z,98812.42
2018-01-05T12:16:46.453Z,98819.19
2018-01-05T12:19:15.528Z,98814.81
2018-01-05T12:21:43.847Z,98825.28
2018-01-05T12:24:12.178Z,98831.11
2018-01-05T12:26:40.523Z,98839.55
2018-01-05T12:29:08.851Z,98844.30
2018-01-05T12:31:37.189Z,98845.94
2018-01-05T12:34:05.535Z,98852.42
2018-01-05T12:36:33.836Z,98844.05
2018-01-05T12:39:02.162Z,98841.58
2018-01-05T12:41:30.477Z,98850.41
2018-01-05T12:43:58.843Z,98860.03
2018-01-05T12:46:27.171Z,98872.77
2018-01-05T12:48:55.495Z,98867.47
2018-01-05T12:51:24.582Z,98872.20
2018-01-05T12:53:53.671Z,98879.00
2018-01-05T12:56:22.752Z,98891.33
2018-01-05T12:58:51.224Z,98881.15
2018-01-05T13:01:19.568Z,98895.13
2018-01-05T13:03:47.879Z,98895.23
2018-01-05T13:06:16.191Z,98891.04
2018-01-05T13:08:45.280Z,98897.95
2018-01-05T13:11:14.372Z,98895.39
2018-01-05T13:13:43.466Z,98904.47
2018-01-05T13:16:12.539Z,98910.02
2018-01-05T13:18:40.867Z,98912.59
2018-01-05T13:21:09.199Z,98915.97
2018-01-05T13:23:37.511Z,98917.88
2018-01-05T13:26:05.816Z,98918.03
2018-01-05T13:28:34.152Z,98926.83
2018-01-05T13:31:03.266Z,98930.91
2018-01-05T13:33:31.589Z,98938.08
2018-01-05T13:35:59.916Z,98945.80
2018-01-05T13:38:28.238Z,98947.95
2018-01-05T13:40:56.843Z,98933.19
2018-01-05T13:43:25.152Z,98933.84
2018-01-05T13:45:54.224Z,98933.84
2018-01-05T13:48:22.550Z,98943.30
2018-01-05T13:50:50.889Z,98950.59
2018-01-05T13:53:20.020Z,98927.97
2018-01-05T13:55:48.324Z,98933.37
2018-01-05T13:58:16.627Z,98940.41
2018-01-05T14:00:44.977Z,98942.58
2018-01-05T14:03:13.287Z,98946.01
2018-01-05T14:05:42.379Z,98952.11
2018-01-05T14:08:10.745Z,98958.17
2018-01-05T14:10:39.803Z,98976.70
2018-01-05T14:13:08.119Z,98969.91
2018-01-05T14:15:36.444Z,98963.94
2018-01-05T14:18:04.758Z,98963.70
2018-01-05T14:20:33.833Z,98984.98
2018-01-05T14:23:02.186Z,98987.48
2018-01-05T14:25:30.516Z,98997.67
2018-01-05T14:27:58.852Z,99000.22
2018-01-05T14:30:27.180Z,98985.99
2018-01-05T14:32:55.507Z,98983.69
2018-01-05T14:35:24.076Z,98979.65
2018-01-05T14:37:52.409Z,98987.84
2018-01-05T14:40:20.722Z,98976.05
2018-01-05T14:42:49.815Z,98981.64
2018-01-05T14:45:18.899Z,98977.02
2018-01-05T14:47:47.983Z,98974.53
2018-01-05T14:50:16.319Z,98980.23
2018-01-05T14:52:44.652Z,98981.28
2018-01-05T14:55:12.977Z,98986.26
2018-01-05T14:57:41.307Z,98997.19
2018-01-05T15:00:09.644Z,98996.89
2018-01-05T15:02:38.110Z,98997.16
2018-01-05T15:05:06.452Z,98979.92
2018-01-05T15:07:35.568Z,98987.11
2018-01-05T15:10:03.892Z,98999.94
2018-01-05T15:12:32.214Z,98996.64
2018-01-05T15:15:00.563Z,99005.10
2018-01-05T15:17:28.881Z,99006.54
2018-01-05T15:19:57.201Z,99017.37
2018-01-05T15:22:25.524Z,99018.30
2018-01-05T15:24:53.844Z,99009.62
2018-01-05T15:27:22.207Z,99016.14
2018-01-05T15:29:50.611Z,99021.72
2018-01-05T15:32:18.936Z,99016.11
2018-01-05T15:34:47.276Z,99022.43
2018-01-05T15:37:15.603Z,99042.05
2018-01-05T15:39:43.919Z,99049.73
2018-01-05T15:42:12.275Z,99049.78
2018-01-05T15:44:40.650Z,99048.61
2018-01-05T15:47:08.956Z,99048.59
2018-01-05T15:49:37.289Z,99051.48
2018-01-05T15:52:05.612Z,99054.29
2018-01-05T15:54:33.936Z,99047.40
2018-01-05T15:57:02.372Z,99049.29
2018-01-05T15:59:30.687Z,99049.55
2018-01-05T16:01:59.768Z,99059.73
2018-01-05T16:04:28.104Z,99061.62
2018-01-05T16:06:56.448Z,99064.29
2018-01-05T16:09:24.760Z,99066.02
2018-01-05T16:11:53.079Z,99067.95
2018-01-05T16:14:21.464Z,99076.22
2018-01-05T16:16:50.559Z,99068.95
2018-01-05T16:19:19.645Z,99068.45
2018-01-05T16:21:47.996Z,99077.16
2018-01-05T16:24:16.316Z,99082.70
2018-01-05T16:26:45.411Z,99080.84
2018-01-05T16:29:13.763Z,99085.16
2018-01-05T16:31:42.081Z,99081.35
2018-01-05T16:34:10.388Z,99080.67
2018-01-05T16:36:38.785Z,99071.11
2018-01-05T16:39:07.108Z,99071.41
2018-01-05T16:41:35.435Z,99077.67
2018-01-05T16:44:04.531Z,99089.06
2018-01-05T16:46:32.856Z,99090.88
2018-01-05T16:49:01.944Z,99089.27
2018-01-05T16:51:31.047Z,99085.55
2018-01-05T16:54:00.142Z,99095.80
2018-01-05T16:56:29.239Z,99104.34
2018-01-05T16:58:58.346Z,99113.56
2018-01-05T17:01:26.705Z,99122.33
2018-01-05T17:03:55.787Z,99125.34
2018-01-05T17:06:24.128Z,99119.45
2018-01-05T17:08:52.455Z,99111.03
2018-01-05T17:11:21.581Z,99104.41
2018-01-05T17:13:49.928Z,99116.84
2018-01-05T17:16:19.031Z,99125.45
2018-01-05T17:18:47.330Z,99126.55
2018-01-05T17:21:15.668Z,99124.73
2018-01-05T17:23:43.996Z,99129.12
2018-01-05T17:26:12.339Z,99133.60
2018-01-05T17:28:40.679Z,99137.92
2018-01-05T17:31:08.999Z,99134.50
2018-01-05T17:33:38.092Z,99149.58
2018-01-05T17:36:07.211Z,99146.38
2018-01-05T17:38:35.546Z,99129.49
2018-01-05T17:41:03.899Z,99130.91
2018-01-05T17:43:32.231Z,99131.46
2018-01-05T17:46:00.565Z,99138.42
2018-01-05T17:48:28.916Z,99138.11
2018-01-05T17:50:57.251Z,99135.82
2018-01-05T17:53:26.341Z,99132.80
2018-01-05T17:55:55.491Z,99136.02
2018-01-05T17:58:23.835Z,99141.20
2018-01-05T18:00:52.168Z,99152.98
2018-01-05T18:03:20.516Z,99150.64
2018-01-05T18:05:48.855Z,99153.48
2018-01-05T18:08:17.971Z,99161.83
2018-01-05T18:10:46.291Z,99170.86
2018-01-05T18:13:14.619Z,99163.20
2018-01-05T18:15:42.963Z,99152.09
2018-01-05T18:18:11.300Z,99155.51
2018-01-05T18:20:39.619Z,99156.53
2018-01-05T18:23:07.960Z,99162.56
2018-01-05T18:25:36.279Z,99155.37
2018-01-05T18:28:05.396Z,99148.30
2018-01-05T18:30:34.515Z,99153.28
2018-01-05T18:33:02.839Z,99160.58
2018-01-05T18:35:31.192Z,99165.34
2018-01-05T18:37:59.524Z,99166.03
2018-01-05T18:40:28.621Z,99174.30
2018-01-05T18:42:57.738Z,99176.36
2018-01-05T18:45:26.053Z,99170.26
2018-01-05T18:47:54.386Z,99177.45
2018-01-05T18:50:22.717Z,99183.48
2018-01-05T18:52:51.031Z,99198.47
2018-01-05T18:55:20.140Z,99198.69
2018-01-05T18:57:48.474Z,99203.47
2018-01-05T19:00:16.804Z,99196.36
2018-01-05T19:02:45.136Z,99188.70
2018-01-05T19:05:13.469Z,99189.34
2018-01-05T19:07:41.800Z,99189.56
2018-01-05T19:10:10.940Z,99193.66
2018-01-05T19:12:39.295Z,99196.41
2018-01-05T19:15:08.397Z,99203.42
2018-01-05T19:17:36.706Z,99201.73
2018-01-05T19:20:05.064Z,99186.75
2018-01-05T19:22:33.413Z,99197.07
2018-01-05T19:25:02.531Z,99198.35
2018-01-05T19:27:30.867Z,99197.28
2018-01-05T19:29:59.252Z,99190.81
2018-01-05T19:32:27.579Z,99185.02
2018-01-05T19:34:55.911Z,99194.06
2018-01-05T19:37:24.994Z,99197.34
2018-01-05T19:39:53.320Z,99197.69
2018-01-05T19:42:21.692Z,99204.30
2018-01-05T19:44:50.008Z,99195.72
2018-01-05T19:47:18.328Z,99193.50
2018-01-05T19:49:47.439Z,99190.97
2018-01-05T19:52:15.751Z,99188.74
2018-01-05T19:54:44.065Z,99187.27
2018-01-05T19:57:12.801Z,99184.02
2018-01-05T19:59:41.154Z,99196.22
2018-01-05T20:02:09.468Z,99191.28
2018-01-05T20:04:37.816Z,99197.36
2018-01-05T20:07:06.146Z,99190.44
2018-01-05T20:09:34.468Z,99203.73
2018-01-05T20:12:02.843Z,99200.58
2018-01-05T20:14:31.167Z,99196.36
2018-01-05T20:16:59.492Z,99207.72
2018-01-05T20:19:28.596Z,99199.86
2018-01-05T20:21:56.932Z,99201.73
2018-01-05T20:24:25.259Z,99210.56
2018-01-05T20:26:53.584Z,99208.93
2018-01-05T20:29:21.932Z,99210.97
2018-01-05T20:31:50.260Z,99215.20
2018-01-05T20:34:18.581Z,99207.81
2018-01-05T20:36:46.916Z,99202.33
2018-01-05T20:39:15.252Z,99197.98
2018-01-05T20:41:43.568Z,99197.89
2018-01-05T20:44:12.685Z,99211.16
2018-01-05T20:46:41.763Z,99210.91
2018-01-05T20:49:10.094Z,99214.50
2018-01-05T20:51:38.432Z,99218.48
2018-01-05T20:54:07.515Z,99219.22
2018-01-05T20:56:36.657Z,99224.01
2018-01-05T20:59:04.992Z,99225.88
2018-01-05T21:01:34.076Z,99221.03
2018-01-05T21:04:02.409Z,99226.28
2018-01-05T21:06:30.751Z,99229.09
2018-01-05T21:08:59.838Z,99234.35
2018-01-05T21:11:28.931Z,99239.45
2018-01-05T21:13:57.274Z,99241.72
2018-01-05T21:16:25.588Z,99241.23
2018-01-05T21:18:54.683Z,99230.18
2018-01-05T21:21:23.803Z,99244.09
2018-01-05T21:23:52.140Z,99242.67
2018-01-05T21:26:21.276Z,99243.33
2018-01-05T21:28:49.624Z,99239.34
2018-01-05T21:31:17.948Z,99238.41
2018-01-05T21:33:46.275Z,99238.95
2018-01-05T21:36:14.600Z,99235.40
2018-01-05T21:38:42.916Z,99241.75
2018-01-05T21:41:11.269Z,99235.70
2018-01-05T21:43:39.599Z,99244.93
2018-01-05T21:46:08.703Z,99246.09
2018-01-05T21:48:37.816Z,99248.77
2018-01-05T21:51:06.144Z,99259.16
2018-01-05T21:53:34.485Z,99263.97
2018-01-05T21:56:02.839Z,99258.72
2018-01-05T21:58:31.168Z,99258.95
2018-01-05T22:00:59.483Z,99262.52
2018-01-05T22:03:28.580Z,99265.62
2018-01-05T22:05:56.943Z,99270.26
2018-01-05T22:08:25.287Z,99263.09
2018-01-05T22:10:53.895Z,99268.56
2018-01-05T22:13:22.212Z,99284.00
2018-01-05T22:15:51.324Z,99278.68
2018-01-05T22:18:19.644Z,99291.55
2018-01-05T22:20:47.972Z,99281.74
2018-01-05T22:23:16.320Z,99281.80
2018-01-05T22:25:45.420Z,99283.47
2018-01-05T22:28:14.515Z,99282.40
2018-01-05T22:30:43.610Z,99282.41
2018-01-05T22:33:12.715Z,99283.63
2018-01-05T22:35:41.816Z,99281.93
2018-01-05T22:38:10.891Z,99279.58
2018-01-05T22:40:39.204Z,99282.26
2018-01-05T22:43:07.558Z,99285.23
2018-01-05T22:45:36.643Z,99285.09
2018-01-05T22:48:05.771Z,99290.70
2018-01-05T22:50:34.141Z,99296.28
2018-01-05T22:53:02.501Z,99299.78
2018-01-05T22:55:31.595Z,99301.19
2018-01-05T22:57:59.919Z,99303.60
2018-01-05T23:00:28.264Z,99257.02
2018-01-05T23:02:57.358Z,99301.59
2018-01-05T23:05:25.675Z,99297.09
2018-01-05T23:07:54.001Z,99308.80
2018-01-05T23:10:22.366Z,99307.92
2018-01-05T23:12:50.709Z,99313.78
2018-01-05T23:15:19.035Z,99314.97
2018-01-05T23:17:48.138Z,99316.44
2018-01-05T23:20:17.262Z,99328.78
2018-01-05T23:22:45.577Z,99335.27
2018-01-05T23:25:13.903Z,99338.27
2018-01-05T23:27:42.251Z,99336.33
2018-01-05T23:30:10.572Z,99336.98
2018-01-05T23:32:38.908Z,99342.53
2018-01-05T23:35:08.020Z,99345.39
2018-01-05T23:37:37.098Z,99344.69
2018-01-05T23:40:05.415Z,99354.05
2018-01-05T23:42:33.756Z,99350.81
2018-01-05T23:45:02.078Z,99347.14
2018-01-05T23:47:30.400Z,99350.41
2018-01-05T23:49:58.768Z,99348.70
2018-01-05T23:52:27.083Z,99354.34
2018-01-05T23:54:56.169Z,99350.80
2018-01-05T23:57:25.264Z,99356.48
2018-01-05T23:59:54.357Z,99363.94
